sensor_id;sensor_type;location;lat;lon;timestamp;P1;durP1;ratioP1;P2;durP2;ratioP2
7402;SDS011;3742;48.770;11.440;2022-11-20T00:01:29;12.30;;;10.30;;
7402;SDS011;3742;48.770;11.440;2022-11-20T00:03:58;13.10;;;10.93;;
7402;SDS011;3742;48.770;11.440;2022-11-20T00:06:26;13.67;;;10.67;;
7402;SDS011;3742;48.770;11.440;2022-11-20T00:08:57;13.17;;;10.00;;
7402;SDS011;3742;48.770;11.440;2022-11-20T00:11:29;13.27;;;10.40;;
7402;SDS011;3742;48.770;11.440;2022-11-20T00:13:59;13.13;;;10.00;;
7402;SDS011;3742;48.770;11.440;2022-11-20T00:16:29;12.03;;;9.97;;
7402;SDS011;3742;48.770;11.440;2022-11-20T00:18:59;12.37;;;10.07;;
7402;SDS011;3742;48.770;11.440;2022-11-20T00:21:28;12.80;;;10.40;;
7402;SDS011;3742;48.770;11.440;2022-11-20T00:23:58;13.00;;;10.37;;
7402;SDS011;3742;48.770;11.440;2022-11-20T00:26:27;12.77;;;10.97;;
7402;SDS011;3742;48.770;11.440;2022-11-20T00:28:57;12.83;;;10.43;;
7402;SDS011;3742;48.770;11.440;2022-11-20T00:31:27;12.63;;;10.03;;
7402;SDS011;3742;48.770;11.440;2022-11-20T00:33:56;13.13;;;10.73;;
7402;SDS011;3742;48.770;11.440;2022-11-20T00:36:25;12.70;;;9.77;;
7402;SDS011;3742;48.770;11.440;2022-11-20T00:38:55;11.63;;;10.03;;
7402;SDS011;3742;48.770;11.440;2022-11-20T00:41:26;11.73;;;9.53;;
7402;SDS011;3742;48.770;11.440;2022-11-20T00:43:56;13.93;;;9.73;;
7402;SDS011;3742;48.770;11.440;2022-11-20T00:46:25;12.67;;;9.87;;
7402;SDS011;3742;48.770;11.440;2022-11-20T00:48:54;11.63;;;9.30;;
7402;SDS011;3742;48.770;11.440;2022-11-20T00:51:24;12.67;;;9.53;;
7402;SDS011;3742;48.770;11.440;2022-11-20T00:53:54;14.33;;;10.70;;
7402;SDS011;3742;48.770;11.440;2022-11-20T00:56:25;14.03;;;10.67;;
7402;SDS011;3742;48.770;11.440;2022-11-20T00:58:53;13.03;;;10.17;;
7402;SDS011;3742;48.770;11.440;2022-11-20T01:01:23;13.73;;;10.63;;
7402;SDS011;3742;48.770;11.440;2022-11-20T01:03:53;13.20;;;9.90;;
7402;SDS011;3742;48.770;11.440;2022-11-20T01:06:24;15.07;;;10.80;;
7402;SDS011;3742;48.770;11.440;2022-11-20T01:08:54;12.37;;;10.33;;
7402;SDS011;3742;48.770;11.440;2022-11-20T01:11:26;14.33;;;10.50;;
7402;SDS011;3742;48.770;11.440;2022-11-20T01:13:55;12.10;;;9.60;;
7402;SDS011;3742;48.770;11.440;2022-11-20T01:16:26;12.83;;;10.53;;
7402;SDS011;3742;48.770;11.440;2022-11-20T01:18:56;11.70;;;9.50;;
7402;SDS011;3742;48.770;11.440;2022-11-20T01:21:26;11.90;;;9.93;;
7402;SDS011;3742;48.770;11.440;2022-11-20T01:23:56;13.63;;;10.70;;
7402;SDS011;3742;48.770;11.440;2022-11-20T01:26:26;13.90;;;11.13;;
7402;SDS011;3742;48.770;11.440;2022-11-20T01:28:56;14.83;;;11.23;;
7402;SDS011;3742;48.770;11.440;2022-11-20T01:31:26;12.77;;;10.97;;
7402;SDS011;3742;48.770;11.440;2022-11-20T01:33:56;14.70;;;11.13;;
7402;SDS011;3742;48.770;11.440;2022-11-20T01:36:27;13.37;;;11.10;;
7402;SDS011;3742;48.770;11.440;2022-11-20T01:38:57;14.70;;;11.33;;
7402;SDS011;3742;48.770;11.440;2022-11-20T01:41:29;13.57;;;10.83;;
7402;SDS011;3742;48.770;11.440;2022-11-20T01:44:17;13.13;;;10.20;;
7402;SDS011;3742;48.770;11.440;2022-11-20T01:46:49;11.43;;;9.67;;
7402;SDS011;3742;48.770;11.440;2022-11-20T01:49:23;13.00;;;10.57;;
7402;SDS011;3742;48.770;11.440;2022-11-20T01:51:54;11.83;;;9.70;;
7402;SDS011;3742;48.770;11.440;2022-11-20T01:54:25;12.10;;;10.20;;
7402;SDS011;3742;48.770;11.440;2022-11-20T01:57:00;13.10;;;10.73;;
7402;SDS011;3742;48.770;11.440;2022-11-20T01:59:29;14.40;;;11.03;;
7402;SDS011;3742;48.770;11.440;2022-11-20T02:01:58;15.13;;;10.93;;
7402;SDS011;3742;48.770;11.440;2022-11-20T02:04:26;14.17;;;10.90;;
7402;SDS011;3742;48.770;11.440;2022-11-20T02:06:56;13.90;;;11.20;;
7402;SDS011;3742;48.770;11.440;2022-11-20T02:09:27;14.00;;;11.30;;
7402;SDS011;3742;48.770;11.440;2022-11-20T02:11:56;14.03;;;11.30;;
7402;SDS011;3742;48.770;11.440;2022-11-20T02:14:27;13.40;;;10.50;;
7402;SDS011;3742;48.770;11.440;2022-11-20T02:16:55;13.73;;;10.70;;
7402;SDS011;3742;48.770;11.440;2022-11-20T02:19:24;13.23;;;10.97;;
7402;SDS011;3742;48.770;11.440;2022-11-20T02:21:56;12.93;;;10.77;;
7402;SDS011;3742;48.770;11.440;2022-11-20T02:24:29;12.00;;;10.33;;
7402;SDS011;3742;48.770;11.440;2022-11-20T02:26:59;14.37;;;11.47;;
7402;SDS011;3742;48.770;11.440;2022-11-20T02:29:31;13.70;;;10.50;;
7402;SDS011;3742;48.770;11.440;2022-11-20T02:32:02;12.77;;;10.73;;
7402;SDS011;3742;48.770;11.440;2022-11-20T02:34:31;12.57;;;10.27;;
7402;SDS011;3742;48.770;11.440;2022-11-20T02:37:00;13.23;;;9.97;;
7402;SDS011;3742;48.770;11.440;2022-11-20T02:39:30;13.00;;;10.97;;
7402;SDS011;3742;48.770;11.440;2022-11-20T02:42:00;12.33;;;10.27;;
7402;SDS011;3742;48.770;11.440;2022-11-20T02:44:29;14.63;;;11.60;;
7402;SDS011;3742;48.770;11.440;2022-11-20T02:46:57;13.93;;;10.90;;
7402;SDS011;3742;48.770;11.440;2022-11-20T02:49:26;13.50;;;10.93;;
7402;SDS011;3742;48.770;11.440;2022-11-20T02:51:55;15.40;;;11.33;;
7402;SDS011;3742;48.770;11.440;2022-11-20T02:54:23;15.83;;;11.87;;
7402;SDS011;3742;48.770;11.440;2022-11-20T02:56:53;12.90;;;10.67;;
7402;SDS011;3742;48.770;11.440;2022-11-20T02:59:22;15.37;;;11.30;;
7402;SDS011;3742;48.770;11.440;2022-11-20T03:01:50;12.03;;;10.47;;
7402;SDS011;3742;48.770;11.440;2022-11-20T03:04:19;14.73;;;11.87;;
7402;SDS011;3742;48.770;11.440;2022-11-20T03:06:48;14.27;;;10.67;;
7402;SDS011;3742;48.770;11.440;2022-11-20T03:09:16;13.63;;;11.40;;
7402;SDS011;3742;48.770;11.440;2022-11-20T03:11:45;14.50;;;11.37;;
7402;SDS011;3742;48.770;11.440;2022-11-20T03:14:16;15.30;;;12.13;;
7402;SDS011;3742;48.770;11.440;2022-11-20T03:16:44;14.50;;;11.47;;
7402;SDS011;3742;48.770;11.440;2022-11-20T03:19:13;14.90;;;11.30;;
7402;SDS011;3742;48.770;11.440;2022-11-20T03:21:42;14.63;;;11.87;;
7402;SDS011;3742;48.770;11.440;2022-11-20T03:24:10;14.20;;;11.57;;
7402;SDS011;3742;48.770;11.440;2022-11-20T03:26:39;14.53;;;11.80;;
7402;SDS011;3742;48.770;11.440;2022-11-20T03:29:08;14.17;;;11.70;;
7402;SDS011;3742;48.770;11.440;2022-11-20T03:31:38;15.67;;;12.17;;
7402;SDS011;3742;48.770;11.440;2022-11-20T03:34:08;14.70;;;10.80;;
7402;SDS011;3742;48.770;11.440;2022-11-20T03:36:37;15.70;;;12.00;;
7402;SDS011;3742;48.770;11.440;2022-11-20T03:39:06;12.77;;;11.10;;
7402;SDS011;3742;48.770;11.440;2022-11-20T03:41:35;14.00;;;11.00;;
7402;SDS011;3742;48.770;11.440;2022-11-20T03:44:05;12.73;;;10.30;;
7402;SDS011;3742;48.770;11.440;2022-11-20T03:46:34;14.20;;;10.90;;
7402;SDS011;3742;48.770;11.440;2022-11-20T03:49:04;13.97;;;11.03;;
7402;SDS011;3742;48.770;11.440;2022-11-20T03:51:34;14.30;;;10.80;;
7402;SDS011;3742;48.770;11.440;2022-11-20T03:54:04;13.20;;;10.63;;
7402;SDS011;3742;48.770;11.440;2022-11-20T03:56:34;11.10;;;9.70;;
7402;SDS011;3742;48.770;11.440;2022-11-20T03:59:03;13.20;;;10.33;;
7402;SDS011;3742;48.770;11.440;2022-11-20T04:01:32;13.40;;;9.67;;
7402;SDS011;3742;48.770;11.440;2022-11-20T04:04:02;11.80;;;9.40;;
7402;SDS011;3742;48.770;11.440;2022-11-20T04:06:34;11.07;;;9.67;;
7402;SDS011;3742;48.770;11.440;2022-11-20T04:09:05;10.83;;;8.83;;
7402;SDS011;3742;48.770;11.440;2022-11-20T04:11:34;12.00;;;9.30;;
7402;SDS011;3742;48.770;11.440;2022-11-20T04:14:04;10.43;;;9.30;;
7402;SDS011;3742;48.770;11.440;2022-11-20T04:16:34;9.97;;;8.60;;
7402;SDS011;3742;48.770;11.440;2022-11-20T04:19:04;11.50;;;9.70;;
7402;SDS011;3742;48.770;11.440;2022-11-20T04:21:35;10.03;;;8.97;;
7402;SDS011;3742;48.770;11.440;2022-11-20T04:24:04;10.57;;;8.70;;
7402;SDS011;3742;48.770;11.440;2022-11-20T04:26:33;10.87;;;9.07;;
7402;SDS011;3742;48.770;11.440;2022-11-20T04:29:02;9.73;;;8.13;;
7402;SDS011;3742;48.770;11.440;2022-11-20T04:31:32;9.60;;;8.23;;
7402;SDS011;3742;48.770;11.440;2022-11-20T04:34:02;8.60;;;7.70;;
7402;SDS011;3742;48.770;11.440;2022-11-20T04:36:31;9.13;;;8.03;;
7402;SDS011;3742;48.770;11.440;2022-11-20T04:39:03;7.43;;;6.73;;
7402;SDS011;3742;48.770;11.440;2022-11-20T04:41:34;7.83;;;6.93;;
7402;SDS011;3742;48.770;11.440;2022-11-20T04:44:04;8.53;;;6.10;;
7402;SDS011;3742;48.770;11.440;2022-11-20T04:46:34;7.43;;;5.93;;
7402;SDS011;3742;48.770;11.440;2022-11-20T04:49:04;7.63;;;6.23;;
7402;SDS011;3742;48.770;11.440;2022-11-20T04:51:32;6.27;;;5.27;;
7402;SDS011;3742;48.770;11.440;2022-11-20T04:54:03;5.97;;;5.40;;
7402;SDS011;3742;48.770;11.440;2022-11-20T04:56:32;5.77;;;5.13;;
7402;SDS011;3742;48.770;11.440;2022-11-20T04:59:01;5.70;;;4.47;;
7402;SDS011;3742;48.770;11.440;2022-11-20T05:01:30;5.23;;;3.90;;
7402;SDS011;3742;48.770;11.440;2022-11-20T05:03:59;5.17;;;4.13;;
7402;SDS011;3742;48.770;11.440;2022-11-20T05:06:28;5.10;;;4.60;;
7402;SDS011;3742;48.770;11.440;2022-11-20T05:08:56;5.17;;;4.23;;
7402;SDS011;3742;48.770;11.440;2022-11-20T05:11:26;5.10;;;4.60;;
7402;SDS011;3742;48.770;11.440;2022-11-20T05:13:57;5.00;;;4.50;;
7402;SDS011;3742;48.770;11.440;2022-11-20T05:16:26;4.60;;;4.00;;
7402;SDS011;3742;48.770;11.440;2022-11-20T05:18:55;4.90;;;4.37;;
7402;SDS011;3742;48.770;11.440;2022-11-20T05:21:24;5.33;;;4.53;;
7402;SDS011;3742;48.770;11.440;2022-11-20T05:23:54;4.60;;;4.13;;
7402;SDS011;3742;48.770;11.440;2022-11-20T05:26:23;4.13;;;3.73;;
7402;SDS011;3742;48.770;11.440;2022-11-20T05:28:53;4.93;;;4.10;;
7402;SDS011;3742;48.770;11.440;2022-11-20T05:31:23;4.63;;;3.97;;
7402;SDS011;3742;48.770;11.440;2022-11-20T05:33:55;4.40;;;4.00;;
7402;SDS011;3742;48.770;11.440;2022-11-20T05:36:24;4.50;;;4.10;;
7402;SDS011;3742;48.770;11.440;2022-11-20T05:38:53;4.33;;;3.93;;
7402;SDS011;3742;48.770;11.440;2022-11-20T05:41:28;7.13;;;4.30;;
7402;SDS011;3742;48.770;11.440;2022-11-20T05:43:58;4.70;;;4.20;;
7402;SDS011;3742;48.770;11.440;2022-11-20T05:46:26;4.80;;;4.23;;
7402;SDS011;3742;48.770;11.440;2022-11-20T05:48:56;5.00;;;4.03;;
7402;SDS011;3742;48.770;11.440;2022-11-20T05:51:25;4.57;;;3.57;;
7402;SDS011;3742;48.770;11.440;2022-11-20T05:53:55;4.10;;;3.70;;
7402;SDS011;3742;48.770;11.440;2022-11-20T05:56:24;4.20;;;3.80;;
7402;SDS011;3742;48.770;11.440;2022-11-20T05:58:53;4.37;;;3.93;;
7402;SDS011;3742;48.770;11.440;2022-11-20T06:01:23;5.13;;;4.63;;
7402;SDS011;3742;48.770;11.440;2022-11-20T06:03:54;5.50;;;3.80;;
7402;SDS011;3742;48.770;11.440;2022-11-20T06:06:22;4.57;;;4.13;;
7402;SDS011;3742;48.770;11.440;2022-11-20T06:08:52;5.10;;;4.00;;
7402;SDS011;3742;48.770;11.440;2022-11-20T06:11:20;5.40;;;4.00;;
7402;SDS011;3742;48.770;11.440;2022-11-20T06:13:51;4.90;;;4.40;;
7402;SDS011;3742;48.770;11.440;2022-11-20T06:16:20;4.17;;;3.77;;
7402;SDS011;3742;48.770;11.440;2022-11-20T06:18:50;4.17;;;3.77;;
7402;SDS011;3742;48.770;11.440;2022-11-20T06:21:19;4.03;;;3.53;;
7402;SDS011;3742;48.770;11.440;2022-11-20T06:23:50;4.73;;;3.73;;
7402;SDS011;3742;48.770;11.440;2022-11-20T06:26:19;4.10;;;3.70;;
7402;SDS011;3742;48.770;11.440;2022-11-20T06:28:48;4.43;;;3.70;;
7402;SDS011;3742;48.770;11.440;2022-11-20T06:31:17;4.90;;;3.77;;
7402;SDS011;3742;48.770;11.440;2022-11-20T06:33:50;4.00;;;3.60;;
7402;SDS011;3742;48.770;11.440;2022-11-20T06:36:20;4.53;;;4.13;;
7402;SDS011;3742;48.770;11.440;2022-11-20T06:38:49;5.83;;;3.87;;
7402;SDS011;3742;48.770;11.440;2022-11-20T06:41:19;5.70;;;3.70;;
7402;SDS011;3742;48.770;11.440;2022-11-20T06:43:48;3.70;;;3.33;;
7402;SDS011;3742;48.770;11.440;2022-11-20T06:46:17;4.10;;;3.70;;
7402;SDS011;3742;48.770;11.440;2022-11-20T06:48:47;3.90;;;3.60;;
7402;SDS011;3742;48.770;11.440;2022-11-20T06:51:17;3.70;;;3.40;;
7402;SDS011;3742;48.770;11.440;2022-11-20T06:53:46;4.00;;;3.57;;
7402;SDS011;3742;48.770;11.440;2022-11-20T06:56:15;5.17;;;3.90;;
7402;SDS011;3742;48.770;11.440;2022-11-20T06:58:44;4.00;;;3.60;;
7402;SDS011;3742;48.770;11.440;2022-11-20T07:01:13;3.80;;;3.50;;
7402;SDS011;3742;48.770;11.440;2022-11-20T07:03:42;3.80;;;3.50;;
7402;SDS011;3742;48.770;11.440;2022-11-20T07:06:18;4.00;;;3.70;;
7402;SDS011;3742;48.770;11.440;2022-11-20T07:08:47;4.20;;;3.80;;
7402;SDS011;3742;48.770;11.440;2022-11-20T07:11:19;4.40;;;3.43;;
7402;SDS011;3742;48.770;11.440;2022-11-20T07:13:48;3.70;;;3.40;;
7402;SDS011;3742;48.770;11.440;2022-11-20T07:16:17;3.63;;;3.33;;
7402;SDS011;3742;48.770;11.440;2022-11-20T07:18:46;4.83;;;3.70;;
7402;SDS011;3742;48.770;11.440;2022-11-20T07:21:18;4.07;;;3.73;;
7402;SDS011;3742;48.770;11.440;2022-11-20T07:23:47;3.50;;;3.20;;
7402;SDS011;3742;48.770;11.440;2022-11-20T07:26:15;5.03;;;4.03;;
7402;SDS011;3742;48.770;11.440;2022-11-20T07:28:44;5.07;;;3.70;;
7402;SDS011;3742;48.770;11.440;2022-11-20T07:31:13;4.10;;;3.40;;
7402;SDS011;3742;48.770;11.440;2022-11-20T07:33:45;3.73;;;3.40;;
7402;SDS011;3742;48.770;11.440;2022-11-20T07:36:14;4.33;;;3.60;;
7402;SDS011;3742;48.770;11.440;2022-11-20T07:38:45;5.90;;;3.63;;
7402;SDS011;3742;48.770;11.440;2022-11-20T07:41:14;4.30;;;3.80;;
7402;SDS011;3742;48.770;11.440;2022-11-20T07:43:43;6.07;;;3.80;;
7402;SDS011;3742;48.770;11.440;2022-11-20T07:46:12;4.00;;;3.60;;
7402;SDS011;3742;48.770;11.440;2022-11-20T07:48:41;5.80;;;3.50;;
7402;SDS011;3742;48.770;11.440;2022-11-20T07:51:09;4.47;;;3.63;;
7402;SDS011;3742;48.770;11.440;2022-11-20T07:53:41;3.93;;;3.53;;
7402;SDS011;3742;48.770;11.440;2022-11-20T07:56:12;4.63;;;3.63;;
7402;SDS011;3742;48.770;11.440;2022-11-20T07:58:42;3.10;;;2.87;;
7402;SDS011;3742;48.770;11.440;2022-11-20T08:01:11;4.20;;;3.43;;
7402;SDS011;3742;48.770;11.440;2022-11-20T08:03:41;4.03;;;3.60;;
7402;SDS011;3742;48.770;11.440;2022-11-20T08:06:09;3.20;;;2.90;;
7402;SDS011;3742;48.770;11.440;2022-11-20T08:08:38;3.93;;;3.63;;
7402;SDS011;3742;48.770;11.440;2022-11-20T08:11:09;6.60;;;3.03;;
7402;SDS011;3742;48.770;11.440;2022-11-20T08:13:56;3.40;;;3.10;;
7402;SDS011;3742;48.770;11.440;2022-11-20T08:16:39;3.70;;;3.40;;
7402;SDS011;3742;48.770;11.440;2022-11-20T08:19:09;4.47;;;3.40;;
7402;SDS011;3742;48.770;11.440;2022-11-20T08:21:38;3.50;;;3.20;;
7402;SDS011;3742;48.770;11.440;2022-11-20T08:24:07;3.60;;;3.30;;
7402;SDS011;3742;48.770;11.440;2022-11-20T08:26:36;3.60;;;3.30;;
7402;SDS011;3742;48.770;11.440;2022-11-20T08:29:07;3.60;;;3.27;;
7402;SDS011;3742;48.770;11.440;2022-11-20T08:31:36;3.70;;;3.30;;
7402;SDS011;3742;48.770;11.440;2022-11-20T08:34:06;4.60;;;3.20;;
7402;SDS011;3742;48.770;11.440;2022-11-20T08:36:41;3.43;;;3.13;;
7402;SDS011;3742;48.770;11.440;2022-11-20T08:39:11;3.97;;;3.13;;
7402;SDS011;3742;48.770;11.440;2022-11-20T08:41:41;3.33;;;3.03;;
7402;SDS011;3742;48.770;11.440;2022-11-20T08:44:11;6.07;;;3.13;;
7402;SDS011;3742;48.770;11.440;2022-11-20T08:46:40;3.23;;;2.90;;
7402;SDS011;3742;48.770;11.440;2022-11-20T08:49:12;3.17;;;2.40;;
7402;SDS011;3742;48.770;11.440;2022-11-20T08:51:42;4.10;;;3.40;;
7402;SDS011;3742;48.770;11.440;2022-11-20T08:54:11;3.10;;;2.73;;
7402;SDS011;3742;48.770;11.440;2022-11-20T08:56:40;3.40;;;3.10;;
7402;SDS011;3742;48.770;11.440;2022-11-20T08:59:09;3.33;;;3.03;;
7402;SDS011;3742;48.770;11.440;2022-11-20T09:01:59;3.17;;;2.83;;
7402;SDS011;3742;48.770;11.440;2022-11-20T09:04:27;4.17;;;3.10;;
7402;SDS011;3742;48.770;11.440;2022-11-20T09:06:56;4.23;;;3.33;;
7402;SDS011;3742;48.770;11.440;2022-11-20T09:09:25;3.30;;;3.00;;
7402;SDS011;3742;48.770;11.440;2022-11-20T09:11:54;3.33;;;3.03;;
7402;SDS011;3742;48.770;11.440;2022-11-20T09:14:22;3.47;;;3.17;;
7402;SDS011;3742;48.770;11.440;2022-11-20T09:16:56;3.47;;;3.17;;
7402;SDS011;3742;48.770;11.440;2022-11-20T09:19:26;3.60;;;2.90;;
7402;SDS011;3742;48.770;11.440;2022-11-20T09:22:14;3.93;;;3.03;;
7402;SDS011;3742;48.770;11.440;2022-11-20T09:24:43;3.70;;;3.40;;
7402;SDS011;3742;48.770;11.440;2022-11-20T09:27:12;3.67;;;3.37;;
7402;SDS011;3742;48.770;11.440;2022-11-20T09:29:41;4.17;;;3.60;;
7402;SDS011;3742;48.770;11.440;2022-11-20T09:32:10;5.47;;;3.90;;
7402;SDS011;3742;48.770;11.440;2022-11-20T09:34:40;4.60;;;3.87;;
7402;SDS011;3742;48.770;11.440;2022-11-20T09:37:08;4.40;;;3.57;;
7402;SDS011;3742;48.770;11.440;2022-11-20T09:39:37;3.90;;;3.53;;
7402;SDS011;3742;48.770;11.440;2022-11-20T09:42:10;3.30;;;3.10;;
7402;SDS011;3742;48.770;11.440;2022-11-20T09:45:05;3.30;;;3.00;;
7402;SDS011;3742;48.770;11.440;2022-11-20T09:47:47;3.47;;;3.17;;
7402;SDS011;3742;48.770;11.440;2022-11-20T09:50:29;3.43;;;2.97;;
7402;SDS011;3742;48.770;11.440;2022-11-20T09:53:13;3.13;;;2.83;;
7402;SDS011;3742;48.770;11.440;2022-11-20T09:55:45;3.53;;;3.03;;
7402;SDS011;3742;48.770;11.440;2022-11-20T09:58:15;3.50;;;3.03;;
7402;SDS011;3742;48.770;11.440;2022-11-20T10:00:50;4.57;;;3.57;;
7402;SDS011;3742;48.770;11.440;2022-11-20T10:03:22;4.30;;;3.20;;
7402;SDS011;3742;48.770;11.440;2022-11-20T10:06:05;3.23;;;2.93;;
7402;SDS011;3742;48.770;11.440;2022-11-20T10:08:39;3.53;;;3.23;;
7402;SDS011;3742;48.770;11.440;2022-11-20T10:11:11;4.07;;;3.40;;
7402;SDS011;3742;48.770;11.440;2022-11-20T10:13:45;4.27;;;3.70;;
7402;SDS011;3742;48.770;11.440;2022-11-20T10:16:26;4.37;;;3.50;;
7402;SDS011;3742;48.770;11.440;2022-11-20T10:19:10;4.57;;;3.77;;
7402;SDS011;3742;48.770;11.440;2022-11-20T10:21:54;5.00;;;3.90;;
7402;SDS011;3742;48.770;11.440;2022-11-20T10:24:30;5.33;;;4.60;;
7402;SDS011;3742;48.770;11.440;2022-11-20T10:27:18;4.20;;;3.80;;
7402;SDS011;3742;48.770;11.440;2022-11-20T10:30:14;5.43;;;3.87;;
7402;SDS011;3742;48.770;11.440;2022-11-20T10:32:45;2.97;;;2.67;;
7402;SDS011;3742;48.770;11.440;2022-11-20T10:35:18;4.07;;;2.90;;
7402;SDS011;3742;48.770;11.440;2022-11-20T10:37:50;3.70;;;3.33;;
7402;SDS011;3742;48.770;11.440;2022-11-20T10:40:23;3.93;;;3.13;;
7402;SDS011;3742;48.770;11.440;2022-11-20T10:42:58;3.73;;;3.13;;
7402;SDS011;3742;48.770;11.440;2022-11-20T10:45:34;3.10;;;2.90;;
7402;SDS011;3742;48.770;11.440;2022-11-20T10:48:10;3.43;;;2.97;;
7402;SDS011;3742;48.770;11.440;2022-11-20T10:50:57;2.90;;;2.67;;
7402;SDS011;3742;48.770;11.440;2022-11-20T10:53:42;4.50;;;3.00;;
7402;SDS011;3742;48.770;11.440;2022-11-20T10:56:19;3.57;;;3.20;;
7402;SDS011;3742;48.770;11.440;2022-11-20T10:58:52;10.93;;;8.67;;
7402;SDS011;3742;48.770;11.440;2022-11-20T11:01:38;3.57;;;3.23;;
7402;SDS011;3742;48.770;11.440;2022-11-20T11:04:33;3.77;;;3.47;;
7402;SDS011;3742;48.770;11.440;2022-11-20T11:07:07;3.90;;;3.07;;
7402;SDS011;3742;48.770;11.440;2022-11-20T11:09:41;6.23;;;4.40;;
7402;SDS011;3742;48.770;11.440;2022-11-20T11:12:12;5.87;;;4.27;;
7402;SDS011;3742;48.770;11.440;2022-11-20T11:14:42;2.97;;;2.53;;
7402;SDS011;3742;48.770;11.440;2022-11-20T11:17:19;3.87;;;2.53;;
7402;SDS011;3742;48.770;11.440;2022-11-20T11:19:57;3.43;;;3.13;;
7402;SDS011;3742;48.770;11.440;2022-11-20T11:22:26;3.23;;;2.80;;
7402;SDS011;3742;48.770;11.440;2022-11-20T11:24:57;3.30;;;2.90;;
7402;SDS011;3742;48.770;11.440;2022-11-20T11:27:26;2.90;;;2.70;;
7402;SDS011;3742;48.770;11.440;2022-11-20T11:30:03;2.70;;;2.50;;
7402;SDS011;3742;48.770;11.440;2022-11-20T11:32:41;2.70;;;2.50;;
7402;SDS011;3742;48.770;11.440;2022-11-20T11:35:19;5.13;;;2.97;;
7402;SDS011;3742;48.770;11.440;2022-11-20T11:37:53;2.77;;;2.57;;
7402;SDS011;3742;48.770;11.440;2022-11-20T11:40:24;3.23;;;2.90;;
7402;SDS011;3742;48.770;11.440;2022-11-20T11:42:57;3.33;;;2.70;;
7402;SDS011;3742;48.770;11.440;2022-11-20T11:45:27;2.90;;;2.70;;
7402;SDS011;3742;48.770;11.440;2022-11-20T11:47:55;2.80;;;2.60;;
7402;SDS011;3742;48.770;11.440;2022-11-20T11:50:25;2.83;;;2.63;;
7402;SDS011;3742;48.770;11.440;2022-11-20T11:52:56;2.60;;;2.40;;
7402;SDS011;3742;48.770;11.440;2022-11-20T11:55:33;2.40;;;2.20;;
7402;SDS011;3742;48.770;11.440;2022-11-20T11:58:08;2.60;;;2.40;;
7402;SDS011;3742;48.770;11.440;2022-11-20T12:00:46;2.77;;;2.57;;
7402;SDS011;3742;48.770;11.440;2022-11-20T12:03:20;3.00;;;2.80;;
7402;SDS011;3742;48.770;11.440;2022-11-20T12:05:53;2.70;;;2.50;;
7402;SDS011;3742;48.770;11.440;2022-11-20T12:08:26;2.80;;;2.53;;
7402;SDS011;3742;48.770;11.440;2022-11-20T12:11:01;3.33;;;2.77;;
7402;SDS011;3742;48.770;11.440;2022-11-20T12:13:44;3.40;;;3.10;;
7402;SDS011;3742;48.770;11.440;2022-11-20T12:16:15;2.87;;;2.60;;
7402;SDS011;3742;48.770;11.440;2022-11-20T12:18:46;3.17;;;2.83;;
7402;SDS011;3742;48.770;11.440;2022-11-20T12:21:20;2.87;;;2.63;;
7402;SDS011;3742;48.770;11.440;2022-11-20T12:24:00;3.30;;;3.00;;
7402;SDS011;3742;48.770;11.440;2022-11-20T12:26:44;4.17;;;2.40;;
7402;SDS011;3742;48.770;11.440;2022-11-20T12:29:22;3.17;;;2.70;;
7402;SDS011;3742;48.770;11.440;2022-11-20T12:32:09;2.53;;;2.30;;
7402;SDS011;3742;48.770;11.440;2022-11-20T12:34:53;2.67;;;2.23;;
7402;SDS011;3742;48.770;11.440;2022-11-20T12:37:30;3.60;;;2.30;;
7402;SDS011;3742;48.770;11.440;2022-11-20T12:40:07;2.50;;;2.30;;
7402;SDS011;3742;48.770;11.440;2022-11-20T12:42:47;2.33;;;2.17;;
7402;SDS011;3742;48.770;11.440;2022-11-20T12:45:46;2.57;;;2.37;;
7402;SDS011;3742;48.770;11.440;2022-11-20T12:48:41;2.40;;;2.20;;
7402;SDS011;3742;48.770;11.440;2022-11-20T12:51:34;2.50;;;2.30;;
7402;SDS011;3742;48.770;11.440;2022-11-20T12:54:25;2.30;;;2.03;;
7402;SDS011;3742;48.770;11.440;2022-11-20T12:57:04;4.13;;;2.30;;
7402;SDS011;3742;48.770;11.440;2022-11-20T12:59:46;3.10;;;2.07;;
7402;SDS011;3742;48.770;11.440;2022-11-20T13:02:23;2.50;;;2.07;;
7402;SDS011;3742;48.770;11.440;2022-11-20T13:07:46;2.37;;;1.90;;
7402;SDS011;3742;48.770;11.440;2022-11-20T13:10:17;2.80;;;2.43;;
7402;SDS011;3742;48.770;11.440;2022-11-20T13:12:50;2.93;;;2.13;;
7402;SDS011;3742;48.770;11.440;2022-11-20T13:15:29;2.60;;;2.17;;
7402;SDS011;3742;48.770;11.440;2022-11-20T13:18:04;4.27;;;2.80;;
7402;SDS011;3742;48.770;11.440;2022-11-20T13:20:35;4.07;;;2.30;;
7402;SDS011;3742;48.770;11.440;2022-11-20T13:23:04;2.50;;;2.10;;
7402;SDS011;3742;48.770;11.440;2022-11-20T13:25:33;3.60;;;2.60;;
7402;SDS011;3742;48.770;11.440;2022-11-20T13:28:03;4.40;;;3.20;;
7402;SDS011;3742;48.770;11.440;2022-11-20T13:30:34;5.83;;;2.67;;
7402;SDS011;3742;48.770;11.440;2022-11-20T13:33:04;4.50;;;2.60;;
7402;SDS011;3742;48.770;11.440;2022-11-20T13:35:36;2.50;;;2.20;;
7402;SDS011;3742;48.770;11.440;2022-11-20T13:38:07;4.17;;;2.20;;
7402;SDS011;3742;48.770;11.440;2022-11-20T13:40:37;4.23;;;2.67;;
7402;SDS011;3742;48.770;11.440;2022-11-20T13:43:18;3.90;;;2.67;;
7402;SDS011;3742;48.770;11.440;2022-11-20T13:45:58;2.43;;;2.10;;
7402;SDS011;3742;48.770;11.440;2022-11-20T13:48:29;2.47;;;2.27;;
7402;SDS011;3742;48.770;11.440;2022-11-20T13:51:02;2.97;;;2.70;;
7402;SDS011;3742;48.770;11.440;2022-11-20T13:53:40;3.03;;;2.60;;
7402;SDS011;3742;48.770;11.440;2022-11-20T13:56:32;2.57;;;2.03;;
7402;SDS011;3742;48.770;11.440;2022-11-20T13:59:07;2.17;;;2.00;;
7402;SDS011;3742;48.770;11.440;2022-11-20T14:01:43;2.13;;;1.93;;
7402;SDS011;3742;48.770;11.440;2022-11-20T14:04:15;1.67;;;1.57;;
7402;SDS011;3742;48.770;11.440;2022-11-20T14:06:47;1.90;;;1.80;;
7402;SDS011;3742;48.770;11.440;2022-11-20T14:09:24;1.73;;;1.53;;
7402;SDS011;3742;48.770;11.440;2022-11-20T14:11:53;2.40;;;2.20;;
7402;SDS011;3742;48.770;11.440;2022-11-20T14:14:22;2.17;;;1.97;;
7402;SDS011;3742;48.770;11.440;2022-11-20T14:17:04;2.33;;;1.70;;
7402;SDS011;3742;48.770;11.440;2022-11-20T14:19:34;2.30;;;2.10;;
7402;SDS011;3742;48.770;11.440;2022-11-20T14:22:09;1.97;;;1.87;;
7402;SDS011;3742;48.770;11.440;2022-11-20T14:24:42;1.67;;;1.57;;
7402;SDS011;3742;48.770;11.440;2022-11-20T14:27:12;2.20;;;2.00;;
7402;SDS011;3742;48.770;11.440;2022-11-20T14:29:42;2.00;;;1.87;;
7402;SDS011;3742;48.770;11.440;2022-11-20T14:32:15;2.00;;;1.80;;
7402;SDS011;3742;48.770;11.440;2022-11-20T14:34:45;3.67;;;2.17;;
7402;SDS011;3742;48.770;11.440;2022-11-20T14:37:17;2.10;;;1.90;;
7402;SDS011;3742;48.770;11.440;2022-11-20T14:39:49;2.10;;;1.90;;
7402;SDS011;3742;48.770;11.440;2022-11-20T14:42:20;2.53;;;1.80;;
7402;SDS011;3742;48.770;11.440;2022-11-20T14:44:50;2.40;;;1.90;;
7402;SDS011;3742;48.770;11.440;2022-11-20T14:47:23;2.90;;;2.50;;
7402;SDS011;3742;48.770;11.440;2022-11-20T14:49:53;2.37;;;2.10;;
7402;SDS011;3742;48.770;11.440;2022-11-20T14:52:23;1.90;;;1.80;;
7402;SDS011;3742;48.770;11.440;2022-11-20T14:54:53;2.10;;;1.90;;
7402;SDS011;3742;48.770;11.440;2022-11-20T14:57:27;2.23;;;2.00;;
7402;SDS011;3742;48.770;11.440;2022-11-20T15:00:04;2.20;;;2.00;;
7402;SDS011;3742;48.770;11.440;2022-11-20T15:02:38;2.27;;;2.07;;
7402;SDS011;3742;48.770;11.440;2022-11-20T15:05:07;2.60;;;2.40;;
7402;SDS011;3742;48.770;11.440;2022-11-20T15:07:36;2.30;;;2.10;;
7402;SDS011;3742;48.770;11.440;2022-11-20T15:10:08;3.00;;;2.33;;
7402;SDS011;3742;48.770;11.440;2022-11-20T15:12:39;2.60;;;2.40;;
7402;SDS011;3742;48.770;11.440;2022-11-20T15:15:15;2.50;;;2.30;;
7402;SDS011;3742;48.770;11.440;2022-11-20T15:17:47;2.33;;;1.93;;
7402;SDS011;3742;48.770;11.440;2022-11-20T15:20:17;2.40;;;2.20;;
7402;SDS011;3742;48.770;11.440;2022-11-20T15:22:46;2.40;;;2.20;;
7402;SDS011;3742;48.770;11.440;2022-11-20T15:25:15;2.43;;;2.23;;
7402;SDS011;3742;48.770;11.440;2022-11-20T15:27:45;2.83;;;2.10;;